sensor_id;sensor_type;location;lat;lon;timestamp;temperature;humidity
34201;DHT22;20469;55.638;37.670;2023-04-24T00:01:30;13.20;1.00
34201;DHT22;20469;55.638;37.670;2023-04-24T00:03:58;12.90;1.00
34201;DHT22;20469;55.638;37.670;2023-04-24T00:06:26;12.70;1.00
34201;DHT22;20469;55.638;37.670;2023-04-24T00:09:00;12.60;1.00
34201;DHT22;20469;55.638;37.670;2023-04-24T00:11:28;12.80;1.00
34201;DHT22;20469;55.638;37.670;2023-04-24T00:13:56;12.80;1.00
34201;DHT22;20469;55.638;37.670;2023-04-24T00:16:23;13.00;1.00
34201;DHT22;20469;55.638;37.670;2023-04-24T00:18:51;13.50;1.00
34201;DHT22;20469;55.638;37.670;2023-04-24T00:21:19;13.40;1.00
34201;DHT22;20469;55.638;37.670;2023-04-24T00:23:47;13.40;1.00
34201;DHT22;20469;55.638;37.670;2023-04-24T00:26:15;13.20;1.00
34201;DHT22;20469;55.638;37.670;2023-04-24T00:28:42;13.10;1.00
34201;DHT22;20469;55.638;37.670;2023-04-24T00:31:09;12.70;1.00
34201;DHT22;20469;55.638;37.670;2023-04-24T00:33:37;12.50;1.00
34201;DHT22;20469;55.638;37.670;2023-04-24T00:36:04;12.70;1.00
34201;DHT22;20469;55.638;37.670;2023-04-24T00:38:31;13.00;1.00
34201;DHT22;20469;55.638;37.670;2023-04-24T00:40:58;12.90;1.00
34201;DHT22;20469;55.638;37.670;2023-04-24T00:43:26;13.00;1.00
34201;DHT22;20469;55.638;37.670;2023-04-24T00:45:54;12.80;1.00
34201;DHT22;20469;55.638;37.670;2023-04-24T00:48:21;13.20;1.00
34201;DHT22;20469;55.638;37.670;2023-04-24T00:50:50;12.90;1.00
34201;DHT22;20469;55.638;37.670;2023-04-24T00:53:17;12.90;1.00
34201;DHT22;20469;55.638;37.670;2023-04-24T00:55:44;12.90;1.00
34201;DHT22;20469;55.638;37.670;2023-04-24T00:58:12;12.80;1.00
34201;DHT22;20469;55.638;37.670;2023-04-24T01:00:39;12.70;1.00
34201;DHT22;20469;55.638;37.670;2023-04-24T01:03:08;13.00;1.00
34201;DHT22;20469;55.638;37.670;2023-04-24T01:05:35;12.90;1.00
34201;DHT22;20469;55.638;37.670;2023-04-24T01:08:03;12.80;1.00
34201;DHT22;20469;55.638;37.670;2023-04-24T01:10:31;12.70;1.00
34201;DHT22;20469;55.638;37.670;2023-04-24T01:13:00;12.70;1.00
34201;DHT22;20469;55.638;37.670;2023-04-24T01:15:27;12.70;1.00
34201;DHT22;20469;55.638;37.670;2023-04-24T01:17:54;12.70;1.00
34201;DHT22;20469;55.638;37.670;2023-04-24T01:20:21;12.70;1.00
34201;DHT22;20469;55.638;37.670;2023-04-24T01:22:49;12.60;1.00
34201;DHT22;20469;55.638;37.670;2023-04-24T01:25:16;12.70;1.00
34201;DHT22;20469;55.638;37.670;2023-04-24T01:27:44;12.70;1.00
34201;DHT22;20469;55.638;37.670;2023-04-24T01:30:12;12.60;1.00
34201;DHT22;20469;55.638;37.670;2023-04-24T01:32:40;12.60;1.00
34201;DHT22;20469;55.638;37.670;2023-04-24T01:35:11;12.60;1.00
34201;DHT22;20469;55.638;37.670;2023-04-24T01:37:38;12.50;1.00
34201;DHT22;20469;55.638;37.670;2023-04-24T01:40:06;12.50;1.00
34201;DHT22;20469;55.638;37.670;2023-04-24T01:42:34;12.50;1.00
34201;DHT22;20469;55.638;37.670;2023-04-24T01:45:03;12.30;1.00
34201;DHT22;20469;55.638;37.670;2023-04-24T01:47:33;11.70;1.00
34201;DHT22;20469;55.638;37.670;2023-04-24T01:50:00;11.50;1.00
34201;DHT22;20469;55.638;37.670;2023-04-24T01:52:29;12.00;1.00
34201;DHT22;20469;55.638;37.670;2023-04-24T01:54:59;12.30;1.00
34201;DHT22;20469;55.638;37.670;2023-04-24T01:57:30;12.30;1.00
34201;DHT22;20469;55.638;37.670;2023-04-24T01:59:57;12.20;1.00
34201;DHT22;20469;55.638;37.670;2023-04-24T02:02:25;12.10;1.00
34201;DHT22;20469;55.638;37.670;2023-04-24T02:04:54;12.00;1.00
34201;DHT22;20469;55.638;37.670;2023-04-24T02:07:22;12.20;1.00
34201;DHT22;20469;55.638;37.670;2023-04-24T02:09:49;12.20;1.00
34201;DHT22;20469;55.638;37.670;2023-04-24T02:12:16;12.00;1.00
34201;DHT22;20469;55.638;37.670;2023-04-24T02:14:44;12.00;1.00
34201;DHT22;20469;55.638;37.670;2023-04-24T02:17:11;12.00;1.00
34201;DHT22;20469;55.638;37.670;2023-04-24T02:19:39;12.10;1.00
34201;DHT22;20469;55.638;37.670;2023-04-24T02:22:07;11.80;1.00
34201;DHT22;20469;55.638;37.670;2023-04-24T02:24:35;11.80;1.00
34201;DHT22;20469;55.638;37.670;2023-04-24T02:27:02;11.90;1.00
34201;DHT22;20469;55.638;37.670;2023-04-24T02:29:29;11.60;1.00
34201;DHT22;20469;55.638;37.670;2023-04-24T02:31:57;11.80;1.00
34201;DHT22;20469;55.638;37.670;2023-04-24T02:34:24;11.60;1.00
34201;DHT22;20469;55.638;37.670;2023-04-24T02:36:51;12.10;1.00
34201;DHT22;20469;55.638;37.670;2023-04-24T02:39:20;12.10;1.00
34201;DHT22;20469;55.638;37.670;2023-04-24T02:41:47;12.20;1.00
34201;DHT22;20469;55.638;37.670;2023-04-24T02:44:14;12.10;1.00
34201;DHT22;20469;55.638;37.670;2023-04-24T02:46:42;12.20;1.00
34201;DHT22;20469;55.638;37.670;2023-04-24T02:49:09;12.10;1.00
34201;DHT22;20469;55.638;37.670;2023-04-24T02:51:36;12.20;1.00
34201;DHT22;20469;55.638;37.670;2023-04-24T02:54:08;12.30;1.00
34201;DHT22;20469;55.638;37.670;2023-04-24T02:56:38;12.10;1.00
34201;DHT22;20469;55.638;37.670;2023-04-24T02:59:05;12.30;1.00
34201;DHT22;20469;55.638;37.670;2023-04-24T03:01:32;12.20;1.00
34201;DHT22;20469;55.638;37.670;2023-04-24T03:04:00;12.40;1.00
34201;DHT22;20469;55.638;37.670;2023-04-24T03:06:28;12.40;1.00
34201;DHT22;20469;55.638;37.670;2023-04-24T03:08:55;12.20;1.00
34201;DHT22;20469;55.638;37.670;2023-04-24T03:11:22;12.10;1.00
34201;DHT22;20469;55.638;37.670;2023-04-24T03:13:50;12.10;1.00
34201;DHT22;20469;55.638;37.670;2023-04-24T03:16:17;12.00;1.00
34201;DHT22;20469;55.638;37.670;2023-04-24T03:18:44;12.00;1.00
34201;DHT22;20469;55.638;37.670;2023-04-24T03:21:11;12.10;1.00
34201;DHT22;20469;55.638;37.670;2023-04-24T03:23:39;12.10;1.00
34201;DHT22;20469;55.638;37.670;2023-04-24T03:26:06;12.30;1.00
34201;DHT22;20469;55.638;37.670;2023-04-24T03:28:33;12.20;1.00
34201;DHT22;20469;55.638;37.670;2023-04-24T03:31:19;12.20;1.00
34201;DHT22;20469;55.638;37.670;2023-04-24T03:33:48;12.30;1.00
34201;DHT22;20469;55.638;37.670;2023-04-24T03:36:15;12.40;1.00
34201;DHT22;20469;55.638;37.670;2023-04-24T03:38:42;12.40;1.00
34201;DHT22;20469;55.638;37.670;2023-04-24T03:41:09;12.70;1.00
34201;DHT22;20469;55.638;37.670;2023-04-24T03:43:36;12.40;1.00
34201;DHT22;20469;55.638;37.670;2023-04-24T03:46:04;12.50;1.00
34201;DHT22;20469;55.638;37.670;2023-04-24T03:48:31;12.60;1.00
34201;DHT22;20469;55.638;37.670;2023-04-24T03:50:58;12.80;1.00
34201;DHT22;20469;55.638;37.670;2023-04-24T03:53:25;12.80;1.00
34201;DHT22;20469;55.638;37.670;2023-04-24T03:55:53;13.00;1.00
34201;DHT22;20469;55.638;37.670;2023-04-24T03:58:20;12.90;1.00
34201;DHT22;20469;55.638;37.670;2023-04-24T04:00:47;13.20;1.00
34201;DHT22;20469;55.638;37.670;2023-04-24T04:03:14;13.40;1.00
34201;DHT22;20469;55.638;37.670;2023-04-24T04:05:42;13.10;1.00
34201;DHT22;20469;55.638;37.670;2023-04-24T04:08:09;13.20;1.00
34201;DHT22;20469;55.638;37.670;2023-04-24T04:10:37;13.20;1.00
34201;DHT22;20469;55.638;37.670;2023-04-24T04:13:04;13.50;1.00
34201;DHT22;20469;55.638;37.670;2023-04-24T04:15:33;13.50;1.00
34201;DHT22;20469;55.638;37.670;2023-04-24T04:18:00;13.50;1.00
34201;DHT22;20469;55.638;37.670;2023-04-24T04:20:27;13.70;1.00
34201;DHT22;20469;55.638;37.670;2023-04-24T04:22:55;13.70;1.00
34201;DHT22;20469;55.638;37.670;2023-04-24T04:25:22;13.70;1.00
34201;DHT22;20469;55.638;37.670;2023-04-24T04:27:50;14.10;1.00
34201;DHT22;20469;55.638;37.670;2023-04-24T04:30:18;14.10;1.00
34201;DHT22;20469;55.638;37.670;2023-04-24T04:32:45;14.00;1.00
34201;DHT22;20469;55.638;37.670;2023-04-24T04:35:12;14.30;1.00
34201;DHT22;20469;55.638;37.670;2023-04-24T04:37:39;14.60;1.00
34201;DHT22;20469;55.638;37.670;2023-04-24T04:40:07;14.30;1.00
34201;DHT22;20469;55.638;37.670;2023-04-24T04:42:38;14.30;1.00
34201;DHT22;20469;55.638;37.670;2023-04-24T04:45:08;14.40;1.00
34201;DHT22;20469;55.638;37.670;2023-04-24T04:47:38;14.50;1.00
34201;DHT22;20469;55.638;37.670;2023-04-24T04:50:06;14.40;1.00
34201;DHT22;20469;55.638;37.670;2023-04-24T04:52:34;14.60;1.00
34201;DHT22;20469;55.638;37.670;2023-04-24T04:55:01;14.70;1.00
34201;DHT22;20469;55.638;37.670;2023-04-24T04:57:30;14.90;1.00
34201;DHT22;20469;55.638;37.670;2023-04-24T04:59:57;15.00;1.00
34201;DHT22;20469;55.638;37.670;2023-04-24T05:02:25;15.00;1.00
34201;DHT22;20469;55.638;37.670;2023-04-24T05:04:52;15.00;1.00
34201;DHT22;20469;55.638;37.670;2023-04-24T05:07:19;15.80;1.00
34201;DHT22;20469;55.638;37.670;2023-04-24T05:09:47;15.80;1.00
34201;DHT22;20469;55.638;37.670;2023-04-24T05:12:14;15.60;1.00
34201;DHT22;20469;55.638;37.670;2023-04-24T05:14:41;15.20;1.00
34201;DHT22;20469;55.638;37.670;2023-04-24T05:17:08;15.30;1.00
34201;DHT22;20469;55.638;37.670;2023-04-24T05:19:36;15.80;1.00
34201;DHT22;20469;55.638;37.670;2023-04-24T05:22:04;15.30;1.00
34201;DHT22;20469;55.638;37.670;2023-04-24T05:24:34;15.60;1.00
34201;DHT22;20469;55.638;37.670;2023-04-24T05:27:02;15.60;1.00
34201;DHT22;20469;55.638;37.670;2023-04-24T05:29:29;15.50;1.00
34201;DHT22;20469;55.638;37.670;2023-04-24T05:31:58;16.00;1.00
34201;DHT22;20469;55.638;37.670;2023-04-24T05:34:25;16.50;1.00
34201;DHT22;20469;55.638;37.670;2023-04-24T05:36:52;16.50;1.00
34201;DHT22;20469;55.638;37.670;2023-04-24T05:39:20;16.70;1.00
34201;DHT22;20469;55.638;37.670;2023-04-24T05:41:47;16.40;1.00
34201;DHT22;20469;55.638;37.670;2023-04-24T05:44:14;16.40;1.00
34201;DHT22;20469;55.638;37.670;2023-04-24T05:46:41;16.40;1.00
34201;DHT22;20469;55.638;37.670;2023-04-24T05:49:08;17.40;1.00
34201;DHT22;20469;55.638;37.670;2023-04-24T05:51:36;17.70;1.00
34201;DHT22;20469;55.638;37.670;2023-04-24T05:54:03;17.50;1.00
34201;DHT22;20469;55.638;37.670;2023-04-24T05:56:30;17.90;1.00
34201;DHT22;20469;55.638;37.670;2023-04-24T05:58:58;17.10;1.00
34201;DHT22;20469;55.638;37.670;2023-04-24T06:01:25;17.20;1.00
34201;DHT22;20469;55.638;37.670;2023-04-24T06:03:52;17.40;1.00
34201;DHT22;20469;55.638;37.670;2023-04-24T06:06:20;18.10;1.00
34201;DHT22;20469;55.638;37.670;2023-04-24T06:08:47;17.80;1.00
34201;DHT22;20469;55.638;37.670;2023-04-24T06:11:15;18.00;1.00
34201;DHT22;20469;55.638;37.670;2023-04-24T06:13:42;18.70;1.00
34201;DHT22;20469;55.638;37.670;2023-04-24T06:16:09;18.60;1.00
34201;DHT22;20469;55.638;37.670;2023-04-24T06:18:37;18.80;1.00
34201;DHT22;20469;55.638;37.670;2023-04-24T06:21:04;19.20;1.00
34201;DHT22;20469;55.638;37.670;2023-04-24T06:23:32;19.80;1.00
34201;DHT22;20469;55.638;37.670;2023-04-24T06:25:59;19.00;1.00
34201;DHT22;20469;55.638;37.670;2023-04-24T06:28:27;18.60;1.00
34201;DHT22;20469;55.638;37.670;2023-04-24T06:30:54;18.20;1.00
34201;DHT22;20469;55.638;37.670;2023-04-24T06:33:40;18.10;1.00
34201;DHT22;20469;55.638;37.670;2023-04-24T06:36:07;19.00;1.00
34201;DHT22;20469;55.638;37.670;2023-04-24T06:38:34;18.90;1.00
34201;DHT22;20469;55.638;37.670;2023-04-24T06:41:01;19.50;1.00
34201;DHT22;20469;55.638;37.670;2023-04-24T06:43:49;19.80;1.00
34201;DHT22;20469;55.638;37.670;2023-04-24T06:46:16;19.90;1.00
34201;DHT22;20469;55.638;37.670;2023-04-24T06:48:44;20.10;1.00
34201;DHT22;20469;55.638;37.670;2023-04-24T06:51:11;20.30;1.00
34201;DHT22;20469;55.638;37.670;2023-04-24T06:53:38;19.90;1.00
34201;DHT22;20469;55.638;37.670;2023-04-24T06:56:05;19.40;1.00
34201;DHT22;20469;55.638;37.670;2023-04-24T06:58:33;19.60;1.00
34201;DHT22;20469;55.638;37.670;2023-04-24T07:03:46;19.50;1.00
34201;DHT22;20469;55.638;37.670;2023-04-24T07:06:14;20.10;1.00
34201;DHT22;20469;55.638;37.670;2023-04-24T07:08:43;19.70;1.00
34201;DHT22;20469;55.638;37.670;2023-04-24T07:11:10;20.20;1.00
34201;DHT22;20469;55.638;37.670;2023-04-24T07:13:37;20.00;1.00
34201;DHT22;20469;55.638;37.670;2023-04-24T07:16:08;19.90;1.00
34201;DHT22;20469;55.638;37.670;2023-04-24T07:18:36;20.20;1.00
34201;DHT22;20469;55.638;37.670;2023-04-24T07:21:04;20.30;1.00
34201;DHT22;20469;55.638;37.670;2023-04-24T07:23:31;20.50;1.00
34201;DHT22;20469;55.638;37.670;2023-04-24T07:25:58;20.70;1.00
34201;DHT22;20469;55.638;37.670;2023-04-24T07:28:25;21.00;1.00
34201;DHT22;20469;55.638;37.670;2023-04-24T07:30:52;20.80;1.00
34201;DHT22;20469;55.638;37.670;2023-04-24T07:33:20;21.30;1.00
34201;DHT22;20469;55.638;37.670;2023-04-24T07:35:48;21.10;1.00
34201;DHT22;20469;55.638;37.670;2023-04-24T07:38:15;20.90;1.00
34201;DHT22;20469;55.638;37.670;2023-04-24T07:40:42;21.30;1.00
34201;DHT22;20469;55.638;37.670;2023-04-24T07:43:11;21.00;1.00
34201;DHT22;20469;55.638;37.670;2023-04-24T07:45:38;21.40;1.00
34201;DHT22;20469;55.638;37.670;2023-04-24T07:48:06;21.60;1.00
34201;DHT22;20469;55.638;37.670;2023-04-24T07:50:36;21.10;1.00
34201;DHT22;20469;55.638;37.670;2023-04-24T07:53:03;20.90;1.00
34201;DHT22;20469;55.638;37.670;2023-04-24T07:55:30;21.70;1.00
34201;DHT22;20469;55.638;37.670;2023-04-24T07:57:58;21.10;1.00
34201;DHT22;20469;55.638;37.670;2023-04-24T08:00:25;20.80;1.00
34201;DHT22;20469;55.638;37.670;2023-04-24T08:02:52;21.00;1.00
34201;DHT22;20469;55.638;37.670;2023-04-24T08:05:20;20.80;1.00
34201;DHT22;20469;55.638;37.670;2023-04-24T08:07:47;22.10;1.00
34201;DHT22;20469;55.638;37.670;2023-04-24T08:10:33;21.70;1.00
34201;DHT22;20469;55.638;37.670;2023-04-24T08:13:01;22.50;1.00
34201;DHT22;20469;55.638;37.670;2023-04-24T08:15:28;21.80;1.00
34201;DHT22;20469;55.638;37.670;2023-04-24T08:17:57;22.30;1.00
34201;DHT22;20469;55.638;37.670;2023-04-24T08:20:25;22.10;1.00
34201;DHT22;20469;55.638;37.670;2023-04-24T08:22:52;23.20;1.00
34201;DHT22;20469;55.638;37.670;2023-04-24T08:25:19;23.40;1.00
34201;DHT22;20469;55.638;37.670;2023-04-24T08:27:46;24.60;1.00
34201;DHT22;20469;55.638;37.670;2023-04-24T08:30:13;23.30;1.00
34201;DHT22;20469;55.638;37.670;2023-04-24T08:32:41;22.50;1.00
34201;DHT22;20469;55.638;37.670;2023-04-24T08:35:08;22.10;1.00
34201;DHT22;20469;55.638;37.670;2023-04-24T08:37:36;23.40;1.00
34201;DHT22;20469;55.638;37.670;2023-04-24T08:40:11;23.30;1.00
34201;DHT22;20469;55.638;37.670;2023-04-24T08:42:41;23.60;1.00
34201;DHT22;20469;55.638;37.670;2023-04-24T08:45:13;23.00;1.00
34201;DHT22;20469;55.638;37.670;2023-04-24T08:47:41;23.50;1.00
34201;DHT22;20469;55.638;37.670;2023-04-24T08:50:27;24.70;1.00
34201;DHT22;20469;55.638;37.670;2023-04-24T08:52:55;27.80;1.00
34201;DHT22;20469;55.638;37.670;2023-04-24T08:55:24;26.80;1.00
34201;DHT22;20469;55.638;37.670;2023-04-24T08:57:53;27.80;1.00
34201;DHT22;20469;55.638;37.670;2023-04-24T09:00:21;26.10;1.00
34201;DHT22;20469;55.638;37.670;2023-04-24T09:02:49;25.70;1.00
34201;DHT22;20469;55.638;37.670;2023-04-24T09:05:17;23.60;1.00
34201;DHT22;20469;55.638;37.670;2023-04-24T09:07:55;26.20;1.00
34201;DHT22;20469;55.638;37.670;2023-04-24T09:10:26;25.90;1.00
34201;DHT22;20469;55.638;37.670;2023-04-24T09:12:54;24.40;1.00
34201;DHT22;20469;55.638;37.670;2023-04-24T09:15:21;27.10;1.00
34201;DHT22;20469;55.638;37.670;2023-04-24T09:17:49;27.80;1.00
34201;DHT22;20469;55.638;37.670;2023-04-24T09:20:16;24.20;1.00
34201;DHT22;20469;55.638;37.670;2023-04-24T09:22:45;23.70;1.00
34201;DHT22;20469;55.638;37.670;2023-04-24T09:25:12;24.90;1.00
34201;DHT22;20469;55.638;37.670;2023-04-24T09:27:43;26.00;1.00
34201;DHT22;20469;55.638;37.670;2023-04-24T09:30:12;25.70;1.00
34201;DHT22;20469;55.638;37.670;2023-04-24T09:32:39;24.20;1.00
34201;DHT22;20469;55.638;37.670;2023-04-24T09:35:13;23.80;1.00
34201;DHT22;20469;55.638;37.670;2023-04-24T09:37:47;24.60;1.00
34201;DHT22;20469;55.638;37.670;2023-04-24T09:40:17;25.60;1.00
34201;DHT22;20469;55.638;37.670;2023-04-24T09:42:53;25.40;1.00
34201;DHT22;20469;55.638;37.670;2023-04-24T09:45:21;24.00;1.00
34201;DHT22;20469;55.638;37.670;2023-04-24T09:47:52;25.20;1.00
34201;DHT22;20469;55.638;37.670;2023-04-24T09:50:23;27.60;1.00
34201;DHT22;20469;55.638;37.670;2023-04-24T09:53:06;24.00;1.00
34201;DHT22;20469;55.638;37.670;2023-04-24T09:55:45;22.50;1.00
34201;DHT22;20469;55.638;37.670;2023-04-24T09:58:13;23.20;1.00
34201;DHT22;20469;55.638;37.670;2023-04-24T10:00:40;26.00;1.00
34201;DHT22;20469;55.638;37.670;2023-04-24T10:03:07;30.60;1.00
34201;DHT22;20469;55.638;37.670;2023-04-24T10:05:36;30.50;1.00
34201;DHT22;20469;55.638;37.670;2023-04-24T10:08:10;26.00;1.00
34201;DHT22;20469;55.638;37.670;2023-04-24T10:10:42;25.30;1.00
34201;DHT22;20469;55.638;37.670;2023-04-24T10:13:10;26.10;1.00
34201;DHT22;20469;55.638;37.670;2023-04-24T10:15:39;26.20;1.00
34201;DHT22;20469;55.638;37.670;2023-04-24T10:18:08;27.40;1.00
34201;DHT22;20469;55.638;37.670;2023-04-24T10:20:37;28.90;1.00
34201;DHT22;20469;55.638;37.670;2023-04-24T10:23:05;31.00;1.00
34201;DHT22;20469;55.638;37.670;2023-04-24T10:25:34;28.10;1.00
34201;DHT22;20469;55.638;37.670;2023-04-24T10:28:02;28.70;1.00
34201;DHT22;20469;55.638;37.670;2023-04-24T10:30:34;28.90;1.00
34201;DHT22;20469;55.638;37.670;2023-04-24T10:33:05;25.50;1.00
34201;DHT22;20469;55.638;37.670;2023-04-24T10:35:44;23.10;1.00
34201;DHT22;20469;55.638;37.670;2023-04-24T10:38:15;24.60;1.00
34201;DHT22;20469;55.638;37.670;2023-04-24T10:40:43;27.80;1.00
34201;DHT22;20469;55.638;37.670;2023-04-24T10:43:17;29.20;1.00
34201;DHT22;20469;55.638;37.670;2023-04-24T10:46:05;28.10;1.00
34201;DHT22;20469;55.638;37.670;2023-04-24T10:48:33;25.40;1.00
34201;DHT22;20469;55.638;37.670;2023-04-24T10:51:01;24.90;1.00
34201;DHT22;20469;55.638;37.670;2023-04-24T10:53:30;26.10;1.00
34201;DHT22;20469;55.638;37.670;2023-04-24T10:56:06;26.70;1.00
34201;DHT22;20469;55.638;37.670;2023-04-24T10:58:44;28.60;1.00
34201;DHT22;20469;55.638;37.670;2023-04-24T11:01:28;28.60;1.00
34201;DHT22;20469;55.638;37.670;2023-04-24T11:03:58;26.20;1.00
34201;DHT22;20469;55.638;37.670;2023-04-24T11:06:43;25.50;1.00
34201;DHT22;20469;55.638;37.670;2023-04-24T11:09:15;25.00;1.00
34201;DHT22;20469;55.638;37.670;2023-04-24T11:11:47;26.30;1.00
34201;DHT22;20469;55.638;37.670;2023-04-24T11:14:14;25.10;1.00
34201;DHT22;20469;55.638;37.670;2023-04-24T11:16:51;27.90;1.00
34201;DHT22;20469;55.638;37.670;2023-04-24T11:19:24;27.80;1.00
34201;DHT22;20469;55.638;37.670;2023-04-24T11:22:01;24.10;1.00
34201;DHT22;20469;55.638;37.670;2023-04-24T11:24:38;23.70;1.00
34201;DHT22;20469;55.638;37.670;2023-04-24T11:27:17;24.90;1.00
34201;DHT22;20469;55.638;37.670;2023-04-24T11:30:00;24.60;1.00
34201;DHT22;20469;55.638;37.670;2023-04-24T11:32:39;27.90;1.00
34201;DHT22;20469;55.638;37.670;2023-04-24T11:35:16;28.40;1.00
34201;DHT22;20469;55.638;37.670;2023-04-24T11:37:48;29.40;1.00
34201;DHT22;20469;55.638;37.670;2023-04-24T11:40:22;30.00;1.00
34201;DHT22;20469;55.638;37.670;2023-04-24T11:42:55;30.40;1.00
34201;DHT22;20469;55.638;37.670;2023-04-24T11:45:24;27.30;1.00
34201;DHT22;20469;55.638;37.670;2023-04-24T11:47:52;26.10;1.00
34201;DHT22;20469;55.638;37.670;2023-04-24T11:50:23;26.50;1.00
34201;DHT22;20469;55.638;37.670;2023-04-24T11:52:50;29.70;1.00
34201;DHT22;20469;55.638;37.670;2023-04-24T11:57:47;26.80;1.00
34201;DHT22;20469;55.638;37.670;2023-04-24T12:00:17;27.40;1.00
34201;DHT22;20469;55.638;37.670;2023-04-24T12:02:46;27.00;1.00
34201;DHT22;20469;55.638;37.670;2023-04-24T12:05:39;27.50;1.00
34201;DHT22;20469;55.638;37.670;2023-04-24T12:08:07;26.60;1.00
34201;DHT22;20469;55.638;37.670;2023-04-24T12:10:35;26.70;1.00
34201;DHT22;20469;55.638;37.670;2023-04-24T12:13:02;29.60;1.00
34201;DHT22;20469;55.638;37.670;2023-04-24T12:15:30;26.70;1.00
34201;DHT22;20469;55.638;37.670;2023-04-24T12:17:58;26.90;1.00
34201;DHT22;20469;55.638;37.670;2023-04-24T12:20:32;26.10;1.00
34201;DHT22;20469;55.638;37.670;2023-04-24T12:23:01;27.60;1.00
34201;DHT22;20469;55.638;37.670;2023-04-24T12:25:31;24.90;1.00
34201;DHT22;20469;55.638;37.670;2023-04-24T12:30:51;25.20;1.00
34201;DHT22;20469;55.638;37.670;2023-04-24T12:33:22;25.40;1.00
34201;DHT22;20469;55.638;37.670;2023-04-24T12:35:52;27.70;1.00
34201;DHT22;20469;55.638;37.670;2023-04-24T12:38:26;26.90;1.00
34201;DHT22;20469;55.638;37.670;2023-04-24T12:41:04;27.60;1.00
34201;DHT22;20469;55.638;37.670;2023-04-24T12:43:32;29.20;1.00
34201;DHT22;20469;55.638;37.670;2023-04-24T12:46:00;29.20;1.00
34201;DHT22;20469;55.638;37.670;2023-04-24T12:48:28;28.80;1.00
34201;DHT22;20469;55.638;37.670;2023-04-24T12:50:57;26.90;1.00
34201;DHT22;20469;55.638;37.670;2023-04-24T12:53:28;24.20;1.00
34201;DHT22;20469;55.638;37.670;2023-04-24T12:55:56;24.20;1.00
34201;DHT22;20469;55.638;37.670;2023-04-24T12:58:23;24.80;1.00
34201;DHT22;20469;55.638;37.670;2023-04-24T13:00:51;25.20;1.00
34201;DHT22;20469;55.638;37.670;2023-04-24T13:03:18;25.60;1.00
34201;DHT22;20469;55.638;37.670;2023-04-24T13:05:46;24.50;1.00
34201;DHT22;20469;55.638;37.670;2023-04-24T13:08:14;25.50;1.00
34201;DHT22;20469;55.638;37.670;2023-04-24T13:10:41;25.30;1.00
34201;DHT22;20469;55.638;37.670;2023-04-24T13:13:09;24.50;1.00
34201;DHT22;20469;55.638;37.670;2023-04-24T13:15:36;24.30;1.00
34201;DHT22;20469;55.638;37.670;2023-04-24T13:18:03;24.40;1.00
34201;DHT22;20469;55.638;37.670;2023-04-24T13:20:30;25.00;1.00
34201;DHT22;20469;55.638;37.670;2023-04-24T13:22:58;23.90;1.00
34201;DHT22;20469;55.638;37.670;2023-04-24T13:25:25;24.70;1.00
34201;DHT22;20469;55.638;37.670;2023-04-24T13:27:53;25.80;1.00
34201;DHT22;20469;55.638;37.670;2023-04-24T13:30:20;24.90;1.00
34201;DHT22;20469;55.638;37.670;2023-04-24T13:32:47;25.70;1.00
34201;DHT22;20469;55.638;37.670;2023-04-24T13:35:15;25.20;1.00
34201;DHT22;20469;55.638;37.670;2023-04-24T13:37:42;23.70;1.00
34201;DHT22;20469;55.638;37.670;2023-04-24T13:40:09;24.30;1.00
34201;DHT22;20469;55.638;37.670;2023-04-24T13:42:37;25.10;1.00
34201;DHT22;20469;55.638;37.670;2023-04-24T13:45:04;24.20;1.00
34201;DHT22;20469;55.638;37.670;2023-04-24T13:47:50;23.60;1.00
34201;DHT22;20469;55.638;37.670;2023-04-24T13:50:18;24.40;1.00
34201;DHT22;20469;55.638;37.670;2023-04-24T13:52:46;25.00;1.00
34201;DHT22;20469;55.638;37.670;2023-04-24T13:55:13;25.70;1.00
34201;DHT22;20469;55.638;37.670;2023-04-24T13:57:40;26.00;1.00
34201;DHT22;20469;55.638;37.670;2023-04-24T14:00:08;25.50;1.00
34201;DHT22;20469;55.638;37.670;2023-04-24T14:02:37;25.20;1.00
34201;DHT22;20469;55.638;37.670;2023-04-24T14:05:05;24.60;1.00
34201;DHT22;20469;55.638;37.670;2023-04-24T14:07:33;26.00;1.00
34201;DHT22;20469;55.638;37.670;2023-04-24T14:10:00;27.40;1.00
34201;DHT22;20469;55.638;37.670;2023-04-24T14:12:30;25.60;1.00
34201;DHT22;20469;55.638;37.670;2023-04-24T14:14:57;24.70;1.00
34201;DHT22;20469;55.638;37.670;2023-04-24T14:17:24;25.20;1.00
34201;DHT22;20469;55.638;37.670;2023-04-24T14:19:51;26.60;1.00
34201;DHT22;20469;55.638;37.670;2023-04-24T14:22:19;27.00;1.00
34201;DHT22;20469;55.638;37.670;2023-04-24T14:24:47;26.70;1.00
34201;DHT22;20469;55.638;37.670;2023-04-24T14:27:14;25.00;1.00
34201;DHT22;20469;55.638;37.670;2023-04-24T14:29:41;25.00;1.00
34201;DHT22;20469;55.638;37.670;2023-04-24T14:32:08;24.80;1.00
34201;DHT22;20469;55.638;37.670;2023-04-24T14:34:35;24.20;1.00
34201;DHT22;20469;55.638;37.670;2023-04-24T14:37:02;24.40;1.00
34201;DHT22;20469;55.638;37.670;2023-04-24T14:39:30;23.90;1.00
34201;DHT22;20469;55.638;37.670;2023-04-24T14:41:57;23.30;1.00
34201;DHT22;20469;55.638;37.670;2023-04-24T14:44:24;23.40;1.00
34201;DHT22;20469;55.638;37.670;2023-04-24T14:46:51;23.80;1.00
34201;DHT22;20469;55.638;37.670;2023-04-24T14:49:19;22.90;1.00
34201;DHT22;20469;55.638;37.670;2023-04-24T14:51:46;22.30;1.00
34201;DHT22;20469;55.638;37.670;2023-04-24T14:54:13;23.10;1.00
34201;DHT22;20469;55.638;37.670;2023-04-24T14:56:40;22.20;1.00
34201;DHT22;20469;55.638;37.670;2023-04-24T14:59:08;21.70;1.00
34201;DHT22;20469;55.638;37.670;2023-04-24T15:01:35;21.50;1.00
34201;DHT22;20469;55.638;37.670;2023-04-24T15:04:02;21.60;1.00
34201;DHT22;20469;55.638;37.670;2023-04-24T15:06:30;21.50;1.00
34201;DHT22;20469;55.638;37.670;2023-04-24T15:08:59;21.30;1.00
34201;DHT22;20469;55.638;37.670;2023-04-24T15:11:26;21.40;1.00
34201;DHT22;20469;55.638;37.670;2023-04-24T15:13:55;21.10;1.00
34201;DHT22;20469;55.638;37.670;2023-04-24T15:16:23;21.20;1.00
34201;DHT22;20469;55.638;37.670;2023-04-24T15:18:51;21.20;1.00
34201;DHT22;20469;55.638;37.670;2023-04-24T15:21:18;21.30;1.00
34201;DHT22;20469;55.638;37.670;2023-04-24T15:23:45;21.30;1.00
34201;DHT22;20469;55.638;37.670;2023-04-24T15:26:13;20.80;1.00
34201;DHT22;20469;55.638;37.670;2023-04-24T15:28:40;20.80;1.00
34201;DHT22;20469;55.638;37.670;2023-04-24T15:31:07;20.90;1.00
34201;DHT22;20469;55.638;37.670;2023-04-24T15:33:35;20.90;1.00
34201;DHT22;20469;55.638;37.670;2023-04-24T15:36:02;21.00;1.00
34201;DHT22;20469;55.638;37.670;2023-04-24T15:38:29;20.90;1.00
34201;DHT22;20469;55.638;37.670;2023-04-24T15:40:57;20.90;1.00
34201;DHT22;20469;55.638;37.670;2023-04-24T15:43:24;20.80;1.00
34201;DHT22;20469;55.638;37.670;2023-04-24T15:45:51;20.80;1.00
34201;DHT22;20469;55.638;37.670;2023-04-24T15:48:19;20.90;1.00